createdAt,value
2023-04-10T00:01:24.091Z,98154.50
2023-04-10T00:03:52.122Z,98154.81
2023-04-10T00:06:19.601Z,98140.72
2023-04-10T00:08:46.826Z,98151.97
2023-04-10T00:11:14.171Z,98145.94
2023-04-10T00:13:41.386Z,98146.91
2023-04-10T00:16:08.778Z,98146.09
2023-04-10T00:18:36.135Z,98148.72
2023-04-10T00:21:04.231Z,98140.97
2023-04-10T00:23:32.796Z,98142.38
2023-04-10T00:26:00.153Z,98141.91
2023-04-10T00:28:27.703Z,98142.38
2023-04-10T00:30:54.833Z,98143.38
2023-04-10T00:33:22.074Z,98140.56
2023-04-10T00:35:49.886Z,98141.22
2023-04-10T00:38:17.466Z,98139.31
2023-04-10T00:40:44.693Z,98134.97
2023-04-10T00:43:12.434Z,98137.94
2023-04-10T00:45:40.462Z,98134.59
2023-04-10T00:48:08.266Z,98129.47
2023-04-10T00:50:35.525Z,98133.72
2023-04-10T00:53:03.726Z,98132.09
2023-04-10T00:55:31.243Z,98128.56
2023-04-10T00:57:58.825Z,98133.00
2023-04-10T01:00:26.208Z,98129.94
2023-04-10T01:02:55.679Z,98129.59
2023-04-10T01:05:24.041Z,98122.13
2023-04-10T01:08:15.875Z,98124.88
2023-04-10T01:11:30.907Z,98130.22
2023-04-10T01:14:16.544Z,98128.94
2023-04-10T01:16:54.293Z,98134.13
2023-04-10T01:20:01.835Z,98123.25
2023-04-10T01:22:35.923Z,98134.44
2023-04-10T01:25:40.579Z,98136.50
2023-04-10T01:28:33.498Z,98136.91
2023-04-10T01:31:02.761Z,98137.22
2023-04-10T01:33:51.053Z,98133.59
2023-04-10T01:36:28.202Z,98133.94
2023-04-10T01:38:57.937Z,98129.59
2023-04-10T01:41:26.658Z,98141.22
2023-04-10T01:43:55.864Z,98136.63
2023-04-10T01:46:24.792Z,98135.63
2023-04-10T01:48:54.097Z,98139.25
2023-04-10T01:51:22.396Z,98134.16
2023-04-10T01:53:51.722Z,98133.00
2023-04-10T01:56:24.086Z,98135.31
2023-04-10T01:58:51.688Z,98134.97
2023-04-10T02:01:29.537Z,98140.63
2023-04-10T02:03:59.391Z,98142.25
2023-04-10T02:06:37.622Z,98137.44
2023-04-10T02:09:46.498Z,98142.69
2023-04-10T02:12:21.691Z,98140.75
2023-04-10T02:14:50.808Z,98142.09
2023-04-10T02:17:26.720Z,98143.59
2023-04-10T02:19:57.222Z,98148.41
2023-04-10T02:22:25.856Z,98155.84
2023-04-10T02:24:54.223Z,98155.53
2023-04-10T02:27:34.076Z,98152.78
2023-04-10T02:30:03.628Z,98152.44
2023-04-10T02:32:33.730Z,98152.22
2023-04-10T02:35:02.800Z,98150.38
2023-04-10T02:37:31.464Z,98147.69
2023-04-10T02:40:01.532Z,98145.31
2023-04-10T02:42:35.899Z,98137.91
2023-04-10T02:45:03.626Z,98142.25
2023-04-10T02:47:36.798Z,98142.38
2023-04-10T02:50:04.350Z,98139.81
2023-04-10T02:52:35.848Z,98134.53
2023-04-10T02:55:03.537Z,98132.97
2023-04-10T02:57:36.237Z,98123.91
2023-04-10T03:00:05.309Z,98132.88
2023-04-10T03:02:53.733Z,98120.50
2023-04-10T03:05:21.772Z,98124.31
2023-04-10T03:07:49.073Z,98124.56
2023-04-10T03:10:16.570Z,98126.72
2023-04-10T03:12:43.853Z,98125.00
2023-04-10T03:15:11.943Z,98125.91
2023-04-10T03:17:39.209Z,98128.91
2023-04-10T03:20:08.734Z,98128.53
2023-04-10T03:22:36.553Z,98130.16
2023-04-10T03:25:03.975Z,98130.59
2023-04-10T03:27:34.743Z,98139.88
2023-04-10T03:30:03.128Z,98132.69
2023-04-10T03:32:39.106Z,98130.81
2023-04-10T03:35:07.221Z,98133.13
2023-04-10T03:37:34.454Z,98127.41
2023-04-10T03:40:01.684Z,98125.41
2023-04-10T03:42:30.046Z,98126.31
2023-04-10T03:44:57.240Z,98132.72
2023-04-10T03:47:24.607Z,98135.78
2023-04-10T03:49:53.110Z,98133.44
2023-04-10T03:52:20.610Z,98135.88
2023-04-10T03:54:48.175Z,98135.44
2023-04-10T03:57:24.549Z,98135.44
2023-04-10T03:59:55.694Z,98138.78
2023-04-10T04:02:23.346Z,98148.50
2023-04-10T04:04:50.889Z,98141.06
2023-04-10T04:07:41.104Z,98146.69
2023-04-10T04:10:20.844Z,98145.81
2023-04-10T04:13:02.974Z,98143.16
2023-04-10T04:15:43.526Z,98131.06
2023-04-10T04:18:29.118Z,98131.88
2023-04-10T04:21:16.434Z,98133.13
2023-04-10T04:24:00.046Z,98139.75
2023-04-10T04:26:47.492Z,98143.63
2023-04-10T04:29:52.925Z,98143.63
2023-04-10T04:32:26.120Z,98145.56
2023-04-10T04:35:04.596Z,98139.78
2023-04-10T04:38:07.408Z,98143.53
2023-04-10T04:40:57.847Z,98154.59
2023-04-10T04:43:41.824Z,98149.41
2023-04-10T04:46:30.170Z,98154.28
2023-04-10T04:49:15.996Z,98155.13
2023-04-10T04:52:18.733Z,98159.84
2023-04-10T04:54:58.149Z,98151.69
2023-04-10T04:57:45.662Z,98168.22
2023-04-10T05:00:26.296Z,98161.56
2023-04-10T05:02:53.720Z,98161.34
2023-04-10T05:05:33.284Z,98165.03
2023-04-10T05:08:27.208Z,98175.19
2023-04-10T05:11:00.599Z,98175.88
2023-04-10T05:14:03.339Z,98172.94
2023-04-10T05:16:42.073Z,98181.75
2023-04-10T05:19:21.476Z,98177.94
2023-04-10T05:22:14.038Z,98181.00
2023-04-10T05:24:44.319Z,98179.84
2023-04-10T05:27:29.100Z,98179.63
2023-04-10T05:30:19.738Z,98178.63
2023-04-10T05:33:07.688Z,98176.78
2023-04-10T05:36:05.550Z,98168.53
2023-04-10T05:38:52.836Z,98176.81
2023-04-10T05:41:46.535Z,98179.91
2023-04-10T05:44:26.249Z,98175.69
2023-04-10T05:47:06.314Z,98184.84
2023-04-10T05:50:12.029Z,98187.16
2023-04-10T05:52:55.633Z,98202.72
2023-04-10T05:55:41.390Z,98199.09
2023-04-10T05:58:39.020Z,98197.28
2023-04-10T06:01:08.866Z,98199.91
2023-04-10T06:03:59.598Z,98199.06
2023-04-10T06:06:27.243Z,98195.88
2023-04-10T06:08:54.738Z,98184.09
2023-04-10T06:11:22.696Z,98188.16
2023-04-10T06:13:53.726Z,98195.78
2023-04-10T06:16:26.838Z,98197.91
2023-04-10T06:18:55.325Z,98198.22
2023-04-10T06:21:22.713Z,98193.31
2023-04-10T06:23:50.224Z,98198.84
2023-04-10T06:26:19.100Z,98209.28
2023-04-10T06:28:46.768Z,98203.03
2023-04-10T06:31:16.165Z,98201.31
2023-04-10T06:33:44.259Z,98209.72
2023-04-10T06:36:11.692Z,98204.16
2023-04-10T06:38:45.291Z,98201.19
2023-04-10T06:41:13.741Z,98202.06
2023-04-10T06:43:41.202Z,98204.84
2023-04-10T06:46:08.848Z,98209.28
2023-04-10T06:48:36.184Z,98201.81
2023-04-10T06:51:04.048Z,98209.88
2023-04-10T06:53:31.486Z,98209.97
2023-04-10T06:56:01.566Z,98211.16
2023-04-10T06:58:30.903Z,98203.91
2023-04-10T07:00:59.033Z,98209.91
2023-04-10T07:03:26.431Z,98209.28
2023-04-10T07:05:53.798Z,98212.59
2023-04-10T07:08:21.092Z,98207.41
2023-04-10T07:10:48.457Z,98208.84
2023-04-10T07:13:15.765Z,98205.34
2023-04-10T07:15:43.081Z,98201.72
2023-04-10T07:18:10.384Z,98194.72
2023-04-10T07:20:38.317Z,98201.94
2023-04-10T07:23:05.930Z,98199.06
2023-04-10T07:25:34.332Z,98200.91
2023-04-10T07:28:01.643Z,98203.91
2023-04-10T07:30:28.886Z,98205.50
2023-04-10T07:32:56.385Z,98217.66
2023-04-10T07:35:23.846Z,98217.72
2023-04-10T07:37:52.712Z,98226.38
2023-04-10T07:40:19.970Z,98219.41
2023-04-10T07:42:47.651Z,98219.25
2023-04-10T07:45:15.038Z,98220.75
2023-04-10T07:47:42.501Z,98220.94
2023-04-10T07:50:09.984Z,98220.44
2023-04-10T07:52:37.411Z,98217.88
2023-04-10T07:55:05.365Z,98221.16
2023-04-10T07:57:32.656Z,98213.91
2023-04-10T07:59:59.904Z,98216.19
2023-04-10T08:02:27.227Z,98211.97
2023-04-10T08:04:54.847Z,98215.19
2023-04-10T08:07:22.658Z,98214.13
2023-04-10T08:09:49.913Z,98211.16
2023-04-10T08:12:17.764Z,98212.16
2023-04-10T08:14:45.323Z,98210.38
2023-04-10T08:17:15.003Z,98213.03
2023-04-10T08:19:43.549Z,98220.81
2023-04-10T08:22:11.214Z,98214.50
2023-04-10T08:24:38.632Z,98216.28
2023-04-10T08:27:05.913Z,98212.66
2023-04-10T08:29:33.091Z,98211.38
2023-04-10T08:32:01.254Z,98208.66
2023-04-10T08:34:28.770Z,98209.06
2023-04-10T08:36:57.645Z,98209.84
2023-04-10T08:39:25.036Z,98206.41
2023-04-10T08:41:52.521Z,98202.47
2023-04-10T08:44:19.816Z,98201.63
2023-04-10T08:46:48.684Z,98206.41
2023-04-10T08:49:45.999Z,98205.47
2023-04-10T08:52:25.034Z,98203.09
2023-04-10T08:54:56.333Z,98209.28
2023-04-10T08:57:24.310Z,98212.66
2023-04-10T08:59:52.041Z,98212.59
2023-04-10T09:02:20.354Z,98208.53
2023-04-10T09:04:55.403Z,98211.25
2023-04-10T09:07:23.527Z,98204.84
2023-04-10T09:09:50.961Z,98205.47
2023-04-10T09:12:18.203Z,98207.25
2023-04-10T09:14:45.604Z,98205.44
2023-04-10T09:17:24.783Z,98203.00
2023-04-10T09:19:56.349Z,98198.69
2023-04-10T09:22:36.547Z,98197.59
2023-04-10T09:25:05.156Z,98199.38
2023-04-10T09:27:35.698Z,98198.38
2023-04-10T09:30:03.788Z,98186.19
2023-04-10T09:32:46.705Z,98190.53
2023-04-10T09:35:16.397Z,98190.00
2023-04-10T09:37:46.556Z,98199.81
2023-04-10T09:40:21.757Z,98192.22
2023-04-10T09:42:49.122Z,98192.03
2023-04-10T09:45:20.248Z,98185.09
2023-04-10T09:48:08.337Z,98184.41
2023-04-10T09:50:41.210Z,98185.28
2023-04-10T09:53:11.451Z,98187.00
2023-04-10T09:55:39.608Z,98193.75
2023-04-10T09:58:07.827Z,98195.13
2023-04-10T10:00:43.751Z,98191.41
2023-04-10T10:03:21.128Z,98190.06
2023-04-10T10:05:52.782Z,98189.66
2023-04-10T10:08:21.612Z,98190.66
2023-04-10T10:10:53.765Z,98181.38
2023-04-10T10:13:54.985Z,98176.47
2023-04-10T10:16:50.030Z,98174.75
2023-04-10T10:19:37.397Z,98167.50
2023-04-10T10:22:05.649Z,98173.06
2023-04-10T10:24:35.021Z,98167.31
2023-04-10T10:27:04.559Z,98167.31
2023-04-10T10:29:34.924Z,98162.19
2023-04-10T10:32:05.993Z,98158.09
2023-04-10T10:34:33.904Z,98161.78
2023-04-10T10:37:02.708Z,98162.44
2023-04-10T10:39:47.920Z,98159.88
2023-04-10T10:42:53.401Z,98153.66
2023-04-10T10:45:38.148Z,98153.56
2023-04-10T10:48:07.453Z,98152.69
2023-04-10T10:50:58.981Z,98148.69
2023-04-10T10:53:36.841Z,98153.09
2023-04-10T10:56:19.336Z,98151.63
2023-04-10T10:58:56.306Z,98146.16
2023-04-10T11:01:24.215Z,98144.63
2023-04-10T11:03:51.800Z,98144.16
2023-04-10T11:06:50.182Z,98146.16
2023-04-10T11:09:48.685Z,98141.06
2023-04-10T11:12:19.330Z,98141.34
2023-04-10T11:14:59.271Z,98142.03
2023-04-10T11:17:51.792Z,98141.34
2023-04-10T11:20:27.460Z,98147.28
2023-04-10T11:23:12.735Z,98135.78
2023-04-10T11:25:52.068Z,98137.38
2023-04-10T11:28:41.169Z,98122.47
2023-04-10T11:31:37.912Z,98127.69
2023-04-10T11:34:10.703Z,98124.94
2023-04-10T11:36:44.774Z,98123.59
2023-04-10T11:39:20.716Z,98126.84
2023-04-10T11:41:52.653Z,98125.72
2023-04-10T11:44:25.930Z,98122.59
2023-04-10T11:46:54.401Z,98115.91
2023-04-10T11:49:28.182Z,98113.28
2023-04-10T11:51:55.999Z,98111.75
2023-04-10T11:54:28.625Z,98109.41
2023-04-10T11:57:13.109Z,98109.44
2023-04-10T11:59:40.814Z,98107.31
2023-04-10T12:02:16.051Z,98107.63
2023-04-10T12:04:44.649Z,98109.50
2023-04-10T12:07:12.188Z,98106.66
2023-04-10T12:09:39.581Z,98104.78
2023-04-10T12:12:08.366Z,98111.31
2023-04-10T12:14:39.575Z,98104.91
2023-04-10T12:17:10.108Z,98100.75
2023-04-10T12:19:39.468Z,98106.47
2023-04-10T12:22:07.825Z,98098.25
2023-04-10T12:24:49.657Z,98095.88
2023-04-10T12:27:27.077Z,98085.78
2023-04-10T12:29:58.096Z,98073.88
2023-04-10T12:32:27.768Z,98076.75
2023-04-10T12:34:58.370Z,98077.97
2023-04-10T12:37:46.678Z,98072.50
2023-04-10T12:40:14.949Z,98066.59
2023-04-10T12:42:43.546Z,98066.91
2023-04-10T12:45:13.958Z,98057.16
2023-04-10T12:47:52.628Z,98051.69
2023-04-10T12:50:21.254Z,98044.47
2023-04-10T12:53:09.433Z,98049.38
2023-04-10T12:55:37.614Z,98049.13
2023-04-10T12:58:20.757Z,98038.09
2023-04-10T13:00:48.578Z,98046.34
2023-04-10T13:03:16.425Z,98036.25
2023-04-10T13:05:44.621Z,98039.75
2023-04-10T13:08:12.222Z,98034.72
2023-04-10T13:10:40.647Z,98031.66
2023-04-10T13:13:08.500Z,98032.41
2023-04-10T13:15:35.820Z,98032.22
2023-04-10T13:18:05.760Z,98030.19
2023-04-10T13:20:37.963Z,98022.25
2023-04-10T13:23:06.033Z,98018.56
2023-04-10T13:25:37.036Z,98012.44
2023-04-10T13:28:10.164Z,98008.44
2023-04-10T13:30:42.477Z,97999.00
2023-04-10T13:33:10.426Z,97994.97
2023-04-10T13:35:40.140Z,97997.88
2023-04-10T13:38:09.438Z,97989.44
2023-04-10T13:40:36.967Z,97984.16
2023-04-10T13:43:06.472Z,97985.16
2023-04-10T13:45:34.958Z,97984.31
2023-04-10T13:48:02.499Z,97984.78
2023-04-10T13:50:30.038Z,97989.13
2023-04-10T13:52:57.305Z,97978.38
2023-04-10T13:55:24.697Z,97978.06
2023-04-10T13:57:52.396Z,97979.50
2023-04-10T14:00:19.709Z,97972.78
2023-04-10T14:02:47.081Z,97964.78
2023-04-10T14:05:14.548Z,97967.66
2023-04-10T14:07:41.836Z,97962.09
2023-04-10T14:10:09.952Z,97960.69
2023-04-10T14:12:37.916Z,97958.03
2023-04-10T14:15:06.046Z,97957.56
2023-04-10T14:17:34.066Z,97955.78
2023-04-10T14:20:01.820Z,97953.13
2023-04-10T14:22:30.356Z,97946.50
2023-04-10T14:25:09.259Z,97944.63
2023-04-10T14:27:39.522Z,97944.63
2023-04-10T14:30:07.862Z,97935.56
2023-04-10T14:32:35.521Z,97940.53
2023-04-10T14:35:02.840Z,97933.38
2023-04-10T14:37:30.106Z,97930.25
2023-04-10T14:39:57.394Z,97926.34
2023-04-10T14:42:24.818Z,97924.00
2023-04-10T14:44:52.103Z,97916.09
2023-04-10T14:47:19.495Z,97910.19
2023-04-10T14:49:46.739Z,97912.97
2023-04-10T14:52:14.087Z,97912.31
2023-04-10T14:54:41.386Z,97911.34
2023-04-10T14:57:09.885Z,97904.41
2023-04-10T14:59:37.285Z,97908.69
2023-04-10T15:02:04.697Z,97911.38
2023-04-10T15:04:32.145Z,97913.50
2023-04-10T15:06:59.494Z,97909.44
2023-04-10T15:09:27.524Z,97902.06
2023-04-10T15:11:56.944Z,97895.91
2023-04-10T15:14:24.264Z,97889.03
2023-04-10T15:16:53.976Z,97891.84
2023-04-10T15:19:21.611Z,97891.47
2023-04-10T15:21:48.968Z,97892.44
2023-04-10T15:24:16.300Z,97887.56
2023-04-10T15:26:45.881Z,97881.84
2023-04-10T15:29:14.003Z,97887.22
2023-04-10T15:31:41.706Z,97890.22
2023-04-10T15:34:10.443Z,97885.66
2023-04-10T15:36:37.779Z,97884.06
2023-04-10T15:39:05.320Z,97877.59
2023-04-10T15:41:33.240Z,97873.22
2023-04-10T15:44:00.697Z,97876.34
2023-04-10T15:46:29.179Z,97874.16
2023-04-10T15:48:56.452Z,97872.06
2023-04-10T15:51:23.700Z,97873.72
2023-04-10T15:53:51.094Z,97869.53
2023-04-10T15:56:18.258Z,97874.84
2023-04-10T15:58:45.529Z,97871.06
2023-04-10T16:01:12.837Z,97872.47
2023-04-10T16:03:40.908Z,97870.09
2023-04-10T16:06:08.858Z,97869.59
2023-04-10T16:08:36.265Z,97870.38
2023-04-10T16:11:03.770Z,97867.22
2023-04-10T16:13:31.108Z,97861.38
2023-04-10T16:15:58.468Z,97866.41
2023-04-10T16:18:25.828Z,97862.44
2023-04-10T16:20:53.200Z,97854.69
2023-04-10T16:23:20.568Z,97854.47
2023-04-10T16:25:47.828Z,97855.81
2023-04-10T16:28:15.123Z,97838.31
2023-04-10T16:30:42.443Z,97849.19
2023-04-10T16:33:09.832Z,97844.97
2023-04-10T16:35:37.121Z,97839.91
2023-04-10T16:38:04.396Z,97848.41
2023-04-10T16:40:33.022Z,97842.03
2023-04-10T16:43:02.079Z,97839.91
2023-04-10T16:45:29.762Z,97826.19
2023-04-10T16:47:57.068Z,97828.28
2023-04-10T16:50:24.361Z,97820.59
2023-04-10T16:52:51.681Z,97805.78
2023-04-10T16:55:18.987Z,97802.34
2023-04-10T16:57:46.695Z,97801.00
2023-04-10T17:00:14.493Z,97794.88
2023-04-10T17:02:43.139Z,97792.97
2023-04-10T17:05:11.456Z,97796.13
2023-04-10T17:07:38.679Z,97792.06
2023-04-10T17:10:06.537Z,97798.69
2023-04-10T17:12:33.994Z,97794.84
2023-04-10T17:15:01.391Z,97783.72
2023-04-10T17:17:28.820Z,97795.50
2023-04-10T17:19:56.647Z,97796.75
2023-04-10T17:22:24.037Z,97791.63
2023-04-10T17:24:51.404Z,97801.91
2023-04-10T17:27:19.050Z,97814.09
2023-04-10T17:29:46.355Z,97808.47
2023-04-10T17:32:13.894Z,97814.44
2023-04-10T17:34:41.222Z,97821.00
2023-04-10T17:37:08.571Z,97815.22
2023-04-10T17:39:35.873Z,97814.44
2023-04-10T17:42:03.424Z,97814.50
2023-04-10T17:44:31.407Z,97814.78
2023-04-10T17:46:58.840Z,97815.53
2023-04-10T17:49:26.548Z,97813.13
2023-04-10T17:51:53.884Z,97812.75
2023-04-10T17:54:21.051Z,97806.47
2023-04-10T17:56:48.490Z,97813.28
2023-04-10T17:59:15.774Z,97812.97
2023-04-10T18:01:43.204Z,97817.44
2023-04-10T18:04:10.861Z,97826.16
2023-04-10T18:06:38.234Z,97824.03
2023-04-10T18:09:06.024Z,97823.25
2023-04-10T18:11:33.365Z,97822.66
2023-04-10T18:14:00.660Z,97820.44
2023-04-10T18:16:27.948Z,97814.44
2023-04-10T18:18:55.619Z,97819.97
2023-04-10T18:21:23.263Z,97819.47
2023-04-10T18:23:50.554Z,97820.84
2023-04-10T18:26:21.030Z,97821.94
2023-04-10T18:28:48.480Z,97821.44
2023-04-10T18:31:16.808Z,97817.13
2023-04-10T18:33:45.468Z,97815.53
2023-04-10T18:36:14.220Z,97812.94
2023-04-10T18:38:43.921Z,97809.53
2023-04-10T18:41:11.442Z,97805.03
2023-04-10T18:43:39.211Z,97801.41
2023-04-10T18:46:07.117Z,97796.19
2023-04-10T18:48:36.074Z,97804.16
2023-04-10T18:51:03.533Z,97808.94
2023-04-10T18:53:31.090Z,97795.59
2023-04-10T18:55:58.507Z,97792.16
2023-04-10T18:58:25.987Z,97798.53
2023-04-10T19:00:54.284Z,97800.97
2023-04-10T19:03:21.577Z,97787.28
2023-04-10T19:05:48.948Z,97790.94
2023-04-10T19:08:17.210Z,97777.22
2023-04-10T19:10:44.523Z,97782.94
2023-04-10T19:13:12.925Z,97773.56
2023-04-10T19:15:47.912Z,97776.16
2023-04-10T19:18:16.527Z,97774.56
2023-04-10T19:20:52.049Z,97772.38
2023-04-10T19:23:20.911Z,97776.69
2023-04-10T19:25:55.253Z,97781.53
2023-04-10T19:28:24.589Z,97784.41
2023-04-10T19:30:52.812Z,97776.56
2023-04-10T19:33:20.616Z,97779.44
2023-04-10T19:35:47.981Z,97769.06
2023-04-10T19:38:15.264Z,97775.09
2023-04-10T19:40:44.426Z,97769.03
2023-04-10T19:43:12.464Z,97765.91
2023-04-10T19:45:40.487Z,97763.34
2023-04-10T19:48:09.657Z,97772.28
2023-04-10T19:50:37.262Z,97767.50
2023-04-10T19:53:05.228Z,97754.13
2023-04-10T19:55:32.836Z,97743.13
2023-04-10T19:58:00.330Z,97742.69
2023-04-10T20:00:27.614Z,97742.53
2023-04-10T20:02:55.190Z,97736.53
2023-04-10T20:05:22.613Z,97733.94
2023-04-10T20:07:50.486Z,97725.44
2023-04-10T20:10:17.785Z,97721.34
2023-04-10T20:12:45.430Z,97728.03
2023-04-10T20:15:12.979Z,97720.00
2023-04-10T20:17:40.877Z,97719.31
2023-04-10T20:20:09.172Z,97721.81
2023-04-10T20:22:36.565Z,97718.22
2023-04-10T20:25:04.074Z,97712.25
2023-04-10T20:27:31.539Z,97715.63
2023-04-10T20:29:58.802Z,97714.75
2023-04-10T20:32:26.113Z,97720.66
2023-04-10T20:34:53.303Z,97715.22
2023-04-10T20:37:22.021Z,97717.44
2023-04-10T20:39:49.749Z,97716.25
2023-04-10T20:42:17.246Z,97718.72
2023-04-10T20:44:44.574Z,97721.28
2023-04-10T20:47:11.896Z,97721.25
2023-04-10T20:49:39.300Z,97724.44
2023-04-10T20:52:07.264Z,97732.56
2023-04-10T20:54:34.681Z,97738.09
2023-04-10T20:57:02.097Z,97727.97
2023-04-10T20:59:33.505Z,97727.78
2023-04-10T21:02:01.103Z,97725.75
2023-04-10T21:04:28.542Z,97721.94
2023-04-10T21:06:55.922Z,97724.22
2023-04-10T21:09:23.146Z,97726.56
2023-04-10T21:11:50.426Z,97712.34
2023-04-10T21:14:17.618Z,97713.09
2023-04-10T21:16:46.031Z,97713.19
2023-04-10T21:19:14.117Z,97703.06
2023-04-10T21:21:41.436Z,97695.56
2023-04-10T21:24:08.728Z,97691.09
2023-04-10T21:26:35.908Z,97682.84
2023-04-10T21:29:03.197Z,97685.56
2023-04-10T21:31:30.785Z,97680.69
2023-04-10T21:33:58.024Z,97677.53
2023-04-10T21:36:26.604Z,97668.41
2023-04-10T21:38:54.087Z,97659.03
2023-04-10T21:41:21.783Z,97652.13
2023-04-10T21:43:49.170Z,97641.19
2023-04-10T21:46:16.534Z,97638.28
2023-04-10T21:48:43.915Z,97638.84
2023-04-10T21:51:11.162Z,97635.13
2023-04-10T21:53:38.404Z,97633.13
2023-04-10T21:56:06.108Z,97633.28
2023-04-10T21:58:33.413Z,97623.16
2023-04-10T22:01:01.222Z,97621.50
2023-04-10T22:03:28.783Z,97618.94
2023-04-10T22:05:56.082Z,97614.25
2023-04-10T22:08:23.369Z,97613.69
2023-04-10T22:10:51.058Z,97618.97
2023-04-10T22:13:30.308Z,97613.78
2023-04-10T22:15:59.982Z,97611.22
2023-04-10T22:18:27.298Z,97607.56
2023-04-10T22:20:54.536Z,97601.13
2023-04-10T22:23:21.762Z,97596.56
2023-04-10T22:25:49.059Z,97595.31
2023-04-10T22:28:16.232Z,97591.25
2023-04-10T22:30:43.435Z,97593.38
2023-04-10T22:33:12.066Z,97599.69
2023-04-10T22:35:39.407Z,97590.28
2023-04-10T22:38:07.824Z,97587.09
2023-04-10T22:40:35.411Z,97585.09
2023-04-10T22:43:02.738Z,97579.38
2023-04-10T22:45:30.032Z,97576.00
2023-04-10T22:47:57.589Z,97573.97
2023-04-10T22:50:24.884Z,97567.19
2023-04-10T22:52:52.293Z,97566.31
2023-04-10T22:55:19.712Z,97565.44
2023-04-10T22:57:49.863Z,97562.00
2023-04-10T23:00:17.340Z,97558.69
2023-04-10T23:02:44.615Z,97549.44
2023-04-10T23:05:11.879Z,97548.56
2023-04-10T23:07:39.086Z,97540.59
2023-04-10T23:10:07.401Z,97537.72
2023-04-10T23:12:34.661Z,97532.47
2023-04-10T23:15:01.833Z,97527.56
2023-04-10T23:17:29.084Z,97520.31
2023-04-10T23:19:56.333Z,97521.88
2023-04-10T23:22:23.621Z,97515.50
2023-04-10T23:24:55.057Z,97508.50
2023-04-10T23:27:22.337Z,97507.25
2023-04-10T23:29:50.219Z,97510.78
2023-04-10T23:32:17.408Z,97505.53
2023-04-10T23:34:44.685Z,97504.53
2023-04-10T23:37:11.924Z,97501.41
2023-04-10T23:39:39.748Z,97492.41
2023-04-10T23:42:06.976Z,97495.59
2023-04-10T23:44:34.321Z,97491.06
2023-04-10T23:47:01.581Z,97487.75
2023-04-10T23:49:29.145Z,97478.13
2023-04-10T23:51:56.299Z,97474.88
2023-04-10T23:54:23.556Z,97466.19
2023-04-10T23:56:50.687Z,97461.31
2023-04-10T23:59:19.190Z,97455.50
